createdAt,value
2018-06-03T00:00:51.873Z,17.60
2018-06-03T00:01:51.862Z,20.20
2018-06-03T00:02:51.834Z,22.70
2018-06-03T00:03:51.764Z,24.00
2018-06-03T00:04:51.764Z,15.90
2018-06-03T00:05:51.704Z,23.10
2018-06-03T00:06:51.677Z,23.10
2018-06-03T00:07:51.626Z,22.20
2018-06-03T00:08:51.595Z,18.20
2018-06-03T00:09:51.568Z,17.40
2018-06-03T00:10:51.555Z,19.80
2018-06-03T00:11:51.554Z,23.60
2018-06-03T00:12:51.466Z,16.60
2018-06-03T00:13:51.429Z,16.10
2018-06-03T00:14:51.397Z,15.60
2018-06-03T00:15:51.351Z,15.70
2018-06-03T00:16:51.327Z,23.70
2018-06-03T00:17:51.292Z,27.90
2018-06-03T00:18:51.278Z,21.00
2018-06-03T00:19:51.280Z,20.20
2018-06-03T00:20:51.175Z,20.40
2018-06-03T00:21:51.163Z,19.10
2018-06-03T00:22:51.118Z,20.20
2018-06-03T00:23:51.073Z,44.60
2018-06-03T00:24:51.066Z,40.80
2018-06-03T00:25:51.045Z,38.90
2018-06-03T00:26:51.005Z,32.20
2018-06-03T00:27:50.950Z,23.70
2018-06-03T00:28:50.900Z,28.10
2018-06-03T00:29:50.891Z,24.00
2018-06-03T00:30:50.861Z,17.40
2018-06-03T00:31:50.854Z,26.40
2018-06-03T00:32:51.499Z,17.80
2018-06-03T00:33:50.718Z,17.80
2018-06-03T00:34:50.684Z,16.80
2018-06-03T00:35:50.648Z,16.80
2018-06-03T00:36:50.632Z,17.10
2018-06-03T00:37:50.599Z,18.00
2018-06-03T00:38:50.588Z,22.40
2018-06-03T00:39:50.508Z,14.70
2018-06-03T00:40:50.494Z,13.50
2018-06-03T00:41:50.500Z,28.50
2018-06-03T00:42:50.407Z,35.20
2018-06-03T00:43:50.388Z,17.80
2018-06-03T00:44:50.336Z,23.50
2018-06-03T00:45:50.319Z,21.80
2018-06-03T00:46:50.292Z,18.30
2018-06-03T00:47:50.263Z,17.40
2018-06-03T00:48:50.216Z,31.20
2018-06-03T00:49:50.195Z,23.30
2018-06-03T00:50:50.202Z,22.40
2018-06-03T00:51:50.118Z,17.60
2018-06-03T00:52:50.110Z,17.90
2018-06-03T00:53:50.099Z,18.00
2018-06-03T00:54:50.025Z,16.50
2018-06-03T00:55:49.978Z,17.90
2018-06-03T00:56:49.967Z,18.90
2018-06-03T00:57:49.912Z,17.50
2018-06-03T00:58:49.857Z,17.70
2018-06-03T00:59:49.868Z,17.30
2018-06-03T01:00:49.791Z,18.80
2018-06-03T01:01:49.742Z,16.80
2018-06-03T01:02:49.731Z,20.10
2018-06-03T01:03:49.698Z,17.20
2018-06-03T01:04:49.699Z,16.30
2018-06-03T01:05:49.657Z,18.00
2018-06-03T01:06:49.574Z,16.40
2018-06-03T01:07:49.543Z,16.00
2018-06-03T01:08:49.529Z,16.00
2018-06-03T01:09:49.508Z,17.20
2018-06-03T01:10:49.499Z,17.80
2018-06-03T01:11:49.389Z,18.40
2018-06-03T01:12:49.392Z,18.30
2018-06-03T01:13:49.344Z,17.00
2018-06-03T01:14:49.304Z,17.10
2018-06-03T01:15:49.260Z,22.90
2018-06-03T01:16:49.255Z,19.40
2018-06-03T01:17:49.216Z,19.60
2018-06-03T01:18:49.150Z,19.80
2018-06-03T01:19:49.145Z,20.10
2018-06-03T01:20:49.088Z,19.10
2018-06-03T01:21:49.063Z,17.80
2018-06-03T01:22:49.055Z,20.50
2018-06-03T01:23:48.968Z,30.10
2018-06-03T01:24:48.957Z,28.60
2018-06-03T01:25:48.937Z,29.90
2018-06-03T01:26:48.911Z,17.60
2018-06-03T01:27:48.889Z,16.20
2018-06-03T01:28:48.803Z,17.80
2018-06-03T01:29:48.769Z,18.90
2018-06-03T01:30:48.803Z,31.30
2018-06-03T01:31:48.711Z,16.60
2018-06-03T01:32:48.647Z,21.10
2018-06-03T01:33:48.624Z,15.40
2018-06-03T01:34:48.624Z,19.00
2018-06-03T01:35:48.563Z,19.60
2018-06-03T01:36:48.507Z,21.30
2018-06-03T01:37:48.482Z,11.40
2018-06-03T01:38:48.448Z,15.10
2018-06-03T01:39:48.419Z,20.60
2018-06-03T01:40:48.389Z,21.80
2018-06-03T01:41:48.344Z,19.00
2018-06-03T01:42:48.328Z,15.90
2018-06-03T01:43:48.311Z,12.50
2018-06-03T01:44:48.259Z,11.70
2018-06-03T01:45:48.197Z,12.80
2018-06-03T01:46:48.157Z,13.10
2018-06-03T01:47:48.125Z,14.80
2018-06-03T01:48:48.098Z,20.20
2018-06-03T01:49:48.057Z,12.20
2018-06-03T01:50:48.034Z,12.80
2018-06-03T01:51:48.000Z,27.90
2018-06-03T01:52:47.943Z,20.20
2018-06-03T01:53:47.933Z,19.20
2018-06-03T01:54:47.877Z,15.20
2018-06-03T01:55:47.846Z,18.40
2018-06-03T01:56:47.835Z,15.50
2018-06-03T01:57:47.757Z,16.50
2018-06-03T01:58:47.741Z,19.20
2018-06-03T01:59:47.715Z,13.50
2018-06-03T02:00:47.676Z,17.60
2018-06-03T02:01:47.649Z,15.90
2018-06-03T02:02:47.612Z,19.50
2018-06-03T02:03:47.558Z,18.40
2018-06-03T02:04:47.528Z,21.20
2018-06-03T02:05:47.500Z,14.70
2018-06-03T02:06:47.445Z,15.80
2018-06-03T02:07:47.406Z,16.30
2018-06-03T02:08:47.367Z,20.10
2018-06-03T02:09:47.344Z,25.30
2018-06-03T02:10:47.323Z,27.30
2018-06-03T02:11:47.261Z,27.70
2018-06-03T02:12:47.242Z,32.20
2018-06-03T02:13:47.233Z,28.90
2018-06-03T02:14:47.155Z,22.60
2018-06-03T02:15:47.177Z,25.80
2018-06-03T02:16:47.128Z,18.90
2018-06-03T02:17:47.093Z,23.00
2018-06-03T02:18:47.028Z,23.00
2018-06-03T02:19:47.017Z,21.70
2018-06-03T02:20:46.943Z,18.90
2018-06-03T02:21:46.998Z,19.30
2018-06-03T02:22:46.925Z,28.10
2018-06-03T02:23:46.902Z,17.70
2018-06-03T02:24:46.831Z,29.50
2018-06-03T02:25:46.809Z,26.30
2018-06-03T02:26:46.787Z,36.50
2018-06-03T02:27:46.724Z,17.40
2018-06-03T02:28:46.688Z,17.10
2018-06-03T02:29:46.687Z,19.40
2018-06-03T02:30:46.615Z,22.30
2018-06-03T02:31:46.561Z,23.00
2018-06-03T02:32:46.555Z,31.50
2018-06-03T02:33:46.526Z,32.10
2018-06-03T02:34:46.501Z,20.70
2018-06-03T02:35:46.492Z,13.70
2018-06-03T02:36:46.456Z,13.10
2018-06-03T02:37:46.417Z,13.50
2018-06-03T02:38:46.387Z,13.80
2018-06-03T02:39:46.261Z,17.80
2018-06-03T02:40:46.248Z,14.20
2018-06-03T02:41:46.224Z,18.20
2018-06-03T02:42:46.215Z,26.80
2018-06-03T02:43:46.161Z,27.50
2018-06-03T02:44:46.102Z,33.70
2018-06-03T02:45:46.083Z,28.90
2018-06-03T02:46:46.048Z,27.30
2018-06-03T02:47:46.016Z,25.50
2018-06-03T02:48:45.986Z,17.80
2018-06-03T02:49:45.925Z,21.50
2018-06-03T02:50:45.944Z,21.50
2018-06-03T02:51:45.867Z,19.40
2018-06-03T02:52:45.831Z,17.70
2018-06-03T02:53:45.813Z,19.80
2018-06-03T02:54:45.757Z,18.30
2018-06-03T02:55:45.686Z,16.00
2018-06-03T02:56:45.684Z,17.10
2018-06-03T02:57:45.628Z,14.20
2018-06-03T02:58:45.590Z,16.10
2018-06-03T02:59:45.570Z,16.10
2018-06-03T03:00:45.523Z,17.00
2018-06-03T03:01:45.494Z,15.70
2018-06-03T03:02:45.504Z,18.10
2018-06-03T03:03:45.476Z,19.20
2018-06-03T03:04:45.427Z,19.70
2018-06-03T03:05:45.375Z,19.50
2018-06-03T03:06:45.329Z,24.10
2018-06-03T03:07:45.280Z,28.90
2018-06-03T03:08:46.048Z,28.80
2018-06-03T03:09:45.180Z,20.00
2018-06-03T03:10:45.148Z,20.30
2018-06-03T03:11:45.168Z,18.20
2018-06-03T03:12:45.126Z,18.10
2018-06-03T03:13:45.120Z,23.00
2018-06-03T03:14:45.044Z,20.50
2018-06-03T03:15:45.042Z,18.40
2018-06-03T03:16:44.965Z,20.70
2018-06-03T03:17:44.915Z,21.40
2018-06-03T03:18:44.897Z,22.40
2018-06-03T03:19:44.865Z,23.90
2018-06-03T03:20:44.810Z,27.60
2018-06-03T03:21:44.809Z,26.50
2018-06-03T03:22:44.773Z,27.30
2018-06-03T03:23:44.748Z,21.00
2018-06-03T03:24:44.692Z,22.90
2018-06-03T03:25:44.632Z,23.80
2018-06-03T03:26:44.569Z,20.90
2018-06-03T03:27:44.556Z,20.40
2018-06-03T03:28:44.539Z,19.10
2018-06-03T03:29:44.472Z,16.80
2018-06-03T03:30:44.487Z,16.40
2018-06-03T03:31:44.437Z,15.50
2018-06-03T03:32:44.381Z,18.40
2018-06-03T03:33:44.326Z,17.20
2018-06-03T03:34:44.338Z,18.00
2018-06-03T03:35:44.331Z,17.10
2018-06-03T03:36:44.247Z,16.40
2018-06-03T03:37:44.212Z,17.40
2018-06-03T03:38:44.151Z,17.10
2018-06-03T03:39:44.136Z,18.00
2018-06-03T03:40:44.077Z,17.90
2018-06-03T03:41:44.114Z,19.80
2018-06-03T03:42:44.001Z,20.00
2018-06-03T03:43:43.972Z,19.80
2018-06-03T03:44:43.924Z,18.10
2018-06-03T03:45:43.927Z,17.10
2018-06-03T03:46:43.850Z,17.90
2018-06-03T03:47:43.842Z,19.80
2018-06-03T03:48:43.819Z,19.40
2018-06-03T03:49:43.782Z,21.60
2018-06-03T03:50:43.733Z,22.90
2018-06-03T03:51:43.715Z,22.50
2018-06-03T03:52:43.709Z,19.10
2018-06-03T03:53:43.606Z,29.40
2018-06-03T03:54:43.577Z,21.90
2018-06-03T03:55:43.514Z,18.90
2018-06-03T03:56:43.574Z,17.20
2018-06-03T03:57:43.479Z,19.50
2018-06-03T03:58:43.421Z,25.00
2018-06-03T03:59:43.385Z,23.50
2018-06-03T04:00:43.382Z,18.80
2018-06-03T04:01:43.296Z,15.40
2018-06-03T04:02:43.277Z,18.30
2018-06-03T04:03:43.315Z,20.50
2018-06-03T04:04:43.247Z,26.20
2018-06-03T04:05:43.179Z,21.40
2018-06-03T04:06:43.162Z,21.90
2018-06-03T04:07:43.139Z,22.80
2018-06-03T04:08:43.070Z,23.80
2018-06-03T04:09:43.103Z,25.90
2018-06-03T04:10:42.983Z,26.20
2018-06-03T04:11:43.034Z,20.60
2018-06-03T04:12:42.934Z,20.00
2018-06-03T04:13:42.891Z,25.40
2018-06-03T04:14:42.841Z,22.60
2018-06-03T04:15:43.533Z,23.10
2018-06-03T04:16:42.788Z,19.70
2018-06-03T04:17:42.749Z,17.80
2018-06-03T04:18:42.690Z,17.00
2018-06-03T04:19:42.681Z,16.30
2018-06-03T04:20:42.711Z,16.80
2018-06-03T04:21:42.601Z,15.70
2018-06-03T04:22:42.606Z,15.40
2018-06-03T04:23:42.515Z,15.10
2018-06-03T04:24:42.523Z,13.00
2018-06-03T04:25:42.473Z,12.90
2018-06-03T04:26:42.427Z,11.90
2018-06-03T04:27:42.399Z,11.90
2018-06-03T04:28:42.358Z,11.90
2018-06-03T04:29:42.325Z,11.70
2018-06-03T04:30:42.296Z,12.10
2018-06-03T04:31:42.256Z,12.40
2018-06-03T04:32:42.240Z,12.30
2018-06-03T04:33:42.196Z,11.80
2018-06-03T04:34:42.167Z,13.20
2018-06-03T04:35:42.137Z,11.80
2018-06-03T04:36:42.095Z,12.40
2018-06-03T04:37:42.045Z,11.60
2018-06-03T04:38:42.038Z,11.30
2018-06-03T04:39:41.976Z,10.30
2018-06-03T04:40:41.957Z,10.40
2018-06-03T04:41:41.909Z,10.00
2018-06-03T04:42:41.933Z,9.90
2018-06-03T04:43:41.829Z,9.60
2018-06-03T04:44:41.802Z,9.60
2018-06-03T04:45:41.771Z,9.40
2018-06-03T04:46:41.744Z,9.00
2018-06-03T04:47:41.715Z,9.30
2018-06-03T04:48:41.662Z,8.90
2018-06-03T04:49:41.675Z,8.40
2018-06-03T04:50:42.574Z,8.10
2018-06-03T04:51:41.595Z,8.40
2018-06-03T04:52:41.573Z,9.10
2018-06-03T04:53:41.492Z,8.80
2018-06-03T04:54:41.487Z,8.20
2018-06-03T04:55:41.448Z,8.30
2018-06-03T04:56:41.414Z,8.70
2018-06-03T04:57:41.369Z,8.30
2018-06-03T04:58:41.363Z,8.00
2018-06-03T04:59:41.319Z,8.20
2018-06-03T05:00:41.275Z,7.80
2018-06-03T05:01:41.298Z,7.80
2018-06-03T05:02:41.213Z,8.00
2018-06-03T05:03:42.082Z,8.10
2018-06-03T05:04:41.200Z,8.30
2018-06-03T05:05:41.140Z,7.80
2018-06-03T05:06:41.141Z,7.80
2018-06-03T05:07:41.091Z,7.70
2018-06-03T05:08:41.105Z,7.70
2018-06-03T05:09:41.020Z,7.80
2018-06-03T05:10:40.974Z,7.70
2018-06-03T05:11:40.978Z,7.40
2018-06-03T05:12:40.981Z,7.10
2018-06-03T05:13:40.885Z,8.10
2018-06-03T05:14:40.836Z,8.10
2018-06-03T05:15:40.864Z,8.00
2018-06-03T05:16:40.839Z,8.30
2018-06-03T05:17:40.790Z,7.40
2018-06-03T05:18:40.820Z,8.40
2018-06-03T05:19:40.715Z,8.40
2018-06-03T05:20:40.681Z,8.00
2018-06-03T05:21:40.733Z,7.50
2018-06-03T05:22:40.616Z,8.60
2018-06-03T05:23:40.575Z,8.60
2018-06-03T05:24:40.549Z,8.30
2018-06-03T05:25:40.529Z,8.30
2018-06-03T05:26:40.510Z,8.20
2018-06-03T05:27:40.488Z,8.50
2018-06-03T05:28:40.446Z,9.20
2018-06-03T05:29:40.442Z,8.50
2018-06-03T05:30:40.436Z,9.10
2018-06-03T05:31:40.345Z,9.40
2018-06-03T05:32:40.361Z,9.20
2018-06-03T05:33:40.290Z,9.00
2018-06-03T05:34:40.314Z,9.30
2018-06-03T05:35:40.235Z,9.20
2018-06-03T05:36:40.236Z,9.30
2018-06-03T05:37:40.182Z,10.40
2018-06-03T05:38:40.149Z,10.10
2018-06-03T05:39:40.128Z,9.90
2018-06-03T05:40:40.106Z,10.20
2018-06-03T05:41:40.080Z,10.30
2018-06-03T05:42:40.073Z,10.90
2018-06-03T05:43:40.019Z,11.40
2018-06-03T05:44:39.997Z,10.90
2018-06-03T05:45:39.976Z,10.90
2018-06-03T05:46:39.946Z,11.00
2018-06-03T05:47:39.913Z,11.30
2018-06-03T05:48:39.913Z,11.50
2018-06-03T05:49:39.857Z,11.50
2018-06-03T05:50:39.832Z,11.90
2018-06-03T05:51:39.799Z,11.10
2018-06-03T05:52:39.770Z,11.20
2018-06-03T05:53:39.741Z,11.50
2018-06-03T05:54:39.699Z,12.10
2018-06-03T05:55:39.745Z,12.50
2018-06-03T05:56:39.676Z,11.60
2018-06-03T05:57:39.736Z,11.90
2018-06-03T05:58:39.609Z,12.90
2018-06-03T05:59:39.571Z,13.30
2018-06-03T06:00:39.562Z,13.50
2018-06-03T06:01:39.551Z,14.70
2018-06-03T06:02:39.490Z,14.00
2018-06-03T06:03:39.501Z,14.30
2018-06-03T06:04:39.449Z,14.10
2018-06-03T06:05:39.421Z,14.40
2018-06-03T06:06:39.399Z,14.60
2018-06-03T06:07:39.360Z,15.20
2018-06-03T06:08:39.320Z,15.30
2018-06-03T06:09:39.318Z,15.30
2018-06-03T06:10:39.269Z,17.10
2018-06-03T06:11:39.269Z,17.00
2018-06-03T06:12:39.258Z,17.80
2018-06-03T06:13:39.167Z,18.90
2018-06-03T06:14:39.175Z,18.60
2018-06-03T06:15:39.115Z,18.80
2018-06-03T06:16:39.095Z,19.00
2018-06-03T06:17:39.063Z,20.80
2018-06-03T06:18:39.056Z,19.90
2018-06-03T06:19:39.012Z,20.40
2018-06-03T06:20:38.989Z,20.00
2018-06-03T06:21:38.955Z,19.40
2018-06-03T06:22:38.914Z,18.90
2018-06-03T06:23:38.898Z,19.30
2018-06-03T06:24:38.852Z,19.20
2018-06-03T06:25:38.822Z,19.50
2018-06-03T06:26:38.784Z,19.00
2018-06-03T06:27:38.765Z,19.00
2018-06-03T06:28:38.728Z,19.10
2018-06-03T06:29:38.714Z,19.50
2018-06-03T06:30:38.682Z,19.10
2018-06-03T06:31:38.723Z,18.90
2018-06-03T06:32:38.621Z,19.10
2018-06-03T06:33:38.594Z,18.60
2018-06-03T06:34:38.566Z,18.60
2018-06-03T06:35:38.544Z,18.60
2018-06-03T06:36:38.542Z,19.40
2018-06-03T06:37:38.478Z,18.90
2018-06-03T06:38:38.518Z,19.40
2018-06-03T06:39:38.410Z,19.70
2018-06-03T06:40:38.396Z,18.70
2018-06-03T06:41:38.426Z,18.80
2018-06-03T06:42:38.347Z,18.50
2018-06-03T06:43:38.329Z,19.20
2018-06-03T06:44:38.279Z,18.90
2018-06-03T06:45:38.256Z,18.10
2018-06-03T06:46:38.228Z,17.90
2018-06-03T06:47:38.219Z,18.00
2018-06-03T06:48:38.225Z,17.50
2018-06-03T06:49:38.182Z,17.90
2018-06-03T06:50:38.113Z,17.60
2018-06-03T06:51:38.111Z,16.40
2018-06-03T06:52:38.106Z,17.30
2018-06-03T06:53:38.035Z,17.20
2018-06-03T06:54:38.029Z,17.80
2018-06-03T06:55:37.996Z,17.20
2018-06-03T06:56:37.956Z,16.70
2018-06-03T06:57:37.927Z,17.70
2018-06-03T06:58:37.892Z,16.80
2018-06-03T06:59:37.934Z,16.40
2018-06-03T07:00:37.858Z,16.70
2018-06-03T07:01:37.844Z,15.30
2018-06-03T07:02:37.793Z,15.30
2018-06-03T07:03:37.765Z,16.10
2018-06-03T07:04:37.736Z,15.40
2018-06-03T07:05:37.721Z,15.60
2018-06-03T07:06:37.696Z,16.20
2018-06-03T07:07:37.664Z,15.70
2018-06-03T07:08:37.656Z,15.80
2018-06-03T07:09:37.607Z,15.40
2018-06-03T07:10:37.613Z,15.90
2018-06-03T07:11:37.550Z,15.50
2018-06-03T07:12:37.538Z,15.70
2018-06-03T07:13:37.548Z,15.90
2018-06-03T07:14:37.488Z,15.60
2018-06-03T07:15:37.464Z,15.70
2018-06-03T07:16:37.419Z,15.80
2018-06-03T07:17:37.410Z,15.40
2018-06-03T07:18:37.374Z,15.70
2018-06-03T07:19:37.378Z,15.40
2018-06-03T07:20:37.335Z,17.50
2018-06-03T07:21:37.329Z,16.00
2018-06-03T07:22:37.291Z,15.80
2018-06-03T07:23:37.288Z,15.70
2018-06-03T07:24:37.228Z,15.60
2018-06-03T07:25:37.238Z,14.80
2018-06-03T07:26:37.302Z,14.90
2018-06-03T07:27:37.158Z,15.60
2018-06-03T07:28:37.173Z,15.80
2018-06-03T07:29:37.126Z,16.80
2018-06-03T07:30:37.158Z,15.40
2018-06-03T07:31:37.072Z,16.20
2018-06-03T07:32:37.039Z,14.60
2018-06-03T07:33:37.027Z,15.00
2018-06-03T07:34:37.016Z,14.90
2018-06-03T07:35:36.985Z,15.50
2018-06-03T07:36:36.967Z,14.40
2018-06-03T07:37:36.964Z,14.30
2018-06-03T07:38:36.923Z,14.20
2018-06-03T07:39:36.908Z,14.10
2018-06-03T07:40:36.865Z,13.80
2018-06-03T07:41:36.856Z,14.00
2018-06-03T07:42:36.829Z,13.50
2018-06-03T07:43:36.831Z,14.30
2018-06-03T07:44:36.793Z,13.60
2018-06-03T07:45:36.781Z,13.40
2018-06-03T07:46:36.756Z,12.90
2018-06-03T07:47:36.742Z,12.60
2018-06-03T07:48:36.736Z,13.00
2018-06-03T07:49:36.714Z,13.10
2018-06-03T07:50:36.663Z,12.70
2018-06-03T07:51:36.762Z,14.00
2018-06-03T07:52:36.609Z,13.80
2018-06-03T07:53:36.737Z,13.80
2018-06-03T07:54:36.575Z,14.70
2018-06-03T07:55:36.571Z,13.20
2018-06-03T07:56:36.540Z,13.70
2018-06-03T07:57:36.519Z,13.30
2018-06-03T07:58:36.492Z,13.80
2018-06-03T07:59:36.480Z,12.50
2018-06-03T08:00:36.447Z,12.90
2018-06-03T08:01:36.429Z,11.90
2018-06-03T08:02:36.416Z,11.70
2018-06-03T08:03:36.410Z,13.10
2018-06-03T08:04:36.384Z,12.20
2018-06-03T08:05:36.361Z,12.00
2018-06-03T08:06:36.353Z,11.20
2018-06-03T08:07:36.313Z,11.20
2018-06-03T08:08:36.276Z,12.00
2018-06-03T08:09:36.271Z,11.80
2018-06-03T08:10:36.233Z,11.60
2018-06-03T08:11:36.241Z,12.70
2018-06-03T08:12:36.215Z,12.30
2018-06-03T08:13:36.204Z,11.60
2018-06-03T08:14:36.164Z,11.60
2018-06-03T08:15:36.149Z,11.40
2018-06-03T08:16:36.137Z,11.50
2018-06-03T08:17:36.187Z,12.60
2018-06-03T08:18:36.085Z,11.90
2018-06-03T08:19:36.070Z,11.50
2018-06-03T08:20:36.065Z,11.20
2018-06-03T08:21:36.053Z,11.80
2018-06-03T08:22:36.014Z,12.20
2018-06-03T08:23:36.020Z,11.40
2018-06-03T08:24:35.962Z,11.50
2018-06-03T08:25:35.928Z,11.30
2018-06-03T08:26:35.913Z,11.10
2018-06-03T08:27:35.911Z,11.30
2018-06-03T08:28:35.880Z,10.80
2018-06-03T08:29:35.874Z,10.30
2018-06-03T08:30:35.820Z,10.60
2018-06-03T08:31:35.835Z,10.80
2018-06-03T08:32:35.771Z,10.80
2018-06-03T08:33:35.805Z,11.40
2018-06-03T08:34:35.747Z,11.10
2018-06-03T08:35:35.731Z,10.10
2018-06-03T08:36:35.714Z,11.10
2018-06-03T08:37:35.697Z,10.30
2018-06-03T08:38:35.721Z,10.30
2018-06-03T08:39:35.629Z,10.30
2018-06-03T08:40:35.636Z,10.00
2018-06-03T08:41:35.575Z,11.10
2018-06-03T08:42:35.558Z,10.70
2018-06-03T08:43:35.535Z,10.40
2018-06-03T08:44:35.523Z,10.90
2018-06-03T08:45:35.493Z,11.10
2018-06-03T08:46:35.474Z,12.00
2018-06-03T08:47:35.452Z,11.00
2018-06-03T08:48:35.494Z,10.80
2018-06-03T08:49:35.407Z,10.40
2018-06-03T08:50:35.414Z,10.90
2018-06-03T08:51:35.379Z,10.80
2018-06-03T08:52:35.362Z,11.90
2018-06-03T08:53:35.344Z,11.90
2018-06-03T08:54:35.301Z,11.00
2018-06-03T08:55:35.290Z,10.10
2018-06-03T08:56:35.357Z,10.20
2018-06-03T08:57:35.224Z,10.40
2018-06-03T08:58:35.219Z,10.30
2018-06-03T08:59:35.201Z,10.60
2018-06-03T09:00:35.157Z,9.90
2018-06-03T09:01:35.155Z,9.40
2018-06-03T09:02:35.137Z,9.50
2018-06-03T09:03:35.113Z,10.00
2018-06-03T09:04:35.081Z,10.10
2018-06-03T09:05:35.068Z,9.00
2018-06-03T09:06:35.054Z,9.50
2018-06-03T09:07:35.032Z,9.60
2018-06-03T09:08:34.984Z,9.30
2018-06-03T09:09:34.966Z,9.80
2018-06-03T09:10:35.011Z,9.10
2018-06-03T09:11:34.983Z,9.60
2018-06-03T09:12:34.927Z,9.30
2018-06-03T09:13:34.989Z,9.80
2018-06-03T09:14:34.916Z,10.50
2018-06-03T09:15:34.837Z,9.40
2018-06-03T09:16:34.881Z,9.50
2018-06-03T09:17:34.822Z,9.50
2018-06-03T09:18:35.699Z,9.20
2018-06-03T09:19:34.775Z,9.20
2018-06-03T09:20:34.757Z,10.10
2018-06-03T09:21:34.729Z,8.90
2018-06-03T09:22:34.693Z,10.50
2018-06-03T09:23:34.647Z,9.80
2018-06-03T09:24:34.654Z,9.80
2018-06-03T09:25:34.644Z,9.30
2018-06-03T09:26:37.023Z,9.00
2018-06-03T09:27:34.592Z,9.20
2018-06-03T09:29:27.915Z,9.10
2018-06-03T09:30:27.753Z,9.00
2018-06-03T09:32:21.266Z,8.80
2018-06-03T09:33:21.185Z,8.80
2018-06-03T09:35:27.757Z,9.30
2018-06-03T09:36:27.452Z,9.10
2018-06-03T09:38:20.770Z,9.20
2018-06-03T09:39:20.474Z,8.40
2018-06-03T09:41:13.691Z,9.50
2018-06-03T09:42:13.546Z,9.10
2018-06-03T09:44:06.880Z,8.70
2018-06-03T09:45:06.726Z,8.50
2018-06-03T09:46:59.959Z,8.80
2018-06-03T09:47:59.718Z,9.60
2018-06-03T09:49:52.984Z,9.60
2018-06-03T09:50:52.816Z,8.70
2018-06-03T09:52:46.571Z,9.40
2018-06-03T09:53:46.308Z,9.00
2018-06-03T09:54:46.316Z,8.90
2018-06-03T09:55:46.279Z,9.20
2018-06-03T09:56:46.222Z,8.80
2018-06-03T09:57:46.247Z,9.50
2018-06-03T09:58:46.194Z,9.10
2018-06-03T09:59:46.170Z,8.90
2018-06-03T10:00:46.164Z,8.90
2018-06-03T10:01:46.132Z,9.00
2018-06-03T10:02:46.145Z,8.70
2018-06-03T10:03:46.090Z,8.60
2018-06-03T10:04:46.044Z,8.50
2018-06-03T10:05:46.067Z,8.10
2018-06-03T10:06:46.004Z,7.70
2018-06-03T10:07:46.046Z,7.70
2018-06-03T10:08:46.049Z,7.90
2018-06-03T10:09:46.003Z,7.80
2018-06-03T10:10:45.959Z,8.60
2018-06-03T10:11:45.889Z,8.60
2018-06-03T10:12:45.894Z,8.50
2018-06-03T10:13:45.856Z,9.30
2018-06-03T10:14:45.858Z,9.20
2018-06-03T10:15:45.855Z,8.80
2018-06-03T10:16:45.853Z,8.80
2018-06-03T10:17:45.776Z,8.60
2018-06-03T10:18:45.773Z,8.90
2018-06-03T10:19:45.757Z,8.30
2018-06-03T10:20:46.604Z,8.10
2018-06-03T10:21:45.698Z,7.90
2018-06-03T10:22:45.680Z,8.20
2018-06-03T10:23:45.657Z,8.50
2018-06-03T10:24:45.652Z,8.40
2018-06-03T10:25:45.604Z,7.90
2018-06-03T10:26:45.673Z,8.50
2018-06-03T10:27:45.561Z,8.30
2018-06-03T10:28:45.566Z,8.40
2018-06-03T10:29:45.537Z,8.20
2018-06-03T10:30:45.511Z,8.30
2018-06-03T10:31:45.480Z,8.10
2018-06-03T10:32:45.464Z,8.20
2018-06-03T10:33:45.515Z,7.40
2018-06-03T10:34:45.412Z,7.40
2018-06-03T10:35:45.387Z,7.10
2018-06-03T10:36:45.384Z,7.70
2018-06-03T10:37:45.347Z,7.90
2018-06-03T10:38:45.336Z,7.60
2018-06-03T10:39:45.306Z,7.70
2018-06-03T10:40:45.307Z,7.50
2018-06-03T10:41:45.268Z,8.00
2018-06-03T10:42:45.242Z,8.30
2018-06-03T10:43:45.272Z,8.50
2018-06-03T10:44:45.203Z,8.30
2018-06-03T10:45:45.220Z,8.40
2018-06-03T10:46:45.187Z,7.80
2018-06-03T10:47:45.146Z,7.80
2018-06-03T10:48:45.109Z,7.90
2018-06-03T10:49:45.109Z,7.50
2018-06-03T10:50:45.146Z,7.40
2018-06-03T10:51:45.090Z,7.40
2018-06-03T10:52:45.319Z,7.60
2018-06-03T10:53:45.004Z,7.40
2018-06-03T10:54:45.012Z,6.40
2018-06-03T10:55:44.964Z,6.00
2018-06-03T10:56:44.944Z,6.40
2018-06-03T10:57:44.923Z,5.90
2018-06-03T10:58:44.911Z,6.10
2018-06-03T10:59:44.875Z,6.10
2018-06-03T11:00:45.046Z,6.10
2018-06-03T11:01:44.873Z,6.10
2018-06-03T11:02:44.837Z,6.40
2018-06-03T11:03:44.784Z,7.10
2018-06-03T11:04:44.836Z,6.50
2018-06-03T11:05:44.756Z,6.70
2018-06-03T11:06:44.765Z,6.90
2018-06-03T11:07:44.699Z,7.20
2018-06-03T11:08:44.796Z,6.90
2018-06-03T11:09:44.661Z,6.50
2018-06-03T11:10:44.645Z,6.50
2018-06-03T11:11:44.700Z,6.60
2018-06-03T11:12:44.581Z,6.40
2018-06-03T11:13:44.568Z,6.30
2018-06-03T11:14:44.543Z,6.40
2018-06-03T11:15:44.580Z,6.50
2018-06-03T11:16:44.642Z,6.50
2018-06-03T11:17:44.501Z,6.80
2018-06-03T11:18:44.457Z,6.40
2018-06-03T11:19:44.470Z,6.00
2018-06-03T11:20:44.423Z,6.40
2018-06-03T11:21:44.399Z,6.40
2018-06-03T11:22:44.381Z,6.70
2018-06-03T11:23:44.359Z,6.60
2018-06-03T11:24:44.374Z,5.70
2018-06-03T11:25:44.317Z,6.20
2018-06-03T11:26:44.458Z,6.80
2018-06-03T11:27:44.254Z,6.00
2018-06-03T11:28:44.240Z,5.70
2018-06-03T11:29:44.297Z,6.20
2018-06-03T11:30:44.250Z,5.50
2018-06-03T11:31:44.171Z,5.80
2018-06-03T11:32:44.165Z,5.80
2018-06-03T11:33:44.149Z,6.00
2018-06-03T11:34:44.132Z,6.10
2018-06-03T11:35:44.092Z,5.80
2018-06-03T11:36:44.069Z,5.70
2018-06-03T11:37:44.042Z,5.70
2018-06-03T11:38:44.031Z,5.60
2018-06-03T11:39:44.011Z,5.50
2018-06-03T11:40:43.995Z,5.50
2018-06-03T11:41:43.962Z,6.00
2018-06-03T11:42:43.949Z,6.00
2018-06-03T11:43:43.964Z,5.60
2018-06-03T11:44:43.938Z,5.70
2018-06-03T11:45:43.893Z,5.20
2018-06-03T11:46:43.930Z,5.60
2018-06-03T11:47:43.867Z,5.80
2018-06-03T11:48:43.858Z,5.70
2018-06-03T11:49:43.809Z,5.90
2018-06-03T11:50:43.816Z,5.60
2018-06-03T11:51:43.767Z,6.00
2018-06-03T11:52:43.762Z,5.90
2018-06-03T11:53:43.759Z,5.50
2018-06-03T11:54:43.718Z,5.80
2018-06-03T11:55:43.695Z,5.80
2018-06-03T11:56:43.673Z,5.60
2018-06-03T11:57:43.733Z,5.10
2018-06-03T11:58:43.653Z,5.20
2018-06-03T11:59:43.598Z,5.50
2018-06-03T12:00:43.607Z,5.30
2018-06-03T12:01:43.630Z,5.80
2018-06-03T12:02:43.566Z,5.50
2018-06-03T12:03:43.546Z,5.90
2018-06-03T12:04:43.526Z,5.30
2018-06-03T12:05:43.496Z,5.60
2018-06-03T12:06:43.463Z,5.40
2018-06-03T12:07:43.505Z,5.90
2018-06-03T12:08:43.445Z,5.30
2018-06-03T12:09:43.410Z,5.40
2018-06-03T12:10:43.392Z,5.60
2018-06-03T12:11:43.404Z,5.40
2018-06-03T12:12:43.390Z,5.10
2018-06-03T12:13:43.344Z,5.40
2018-06-03T12:14:43.317Z,5.60
2018-06-03T12:15:43.338Z,5.60
2018-06-03T12:16:43.276Z,5.40
2018-06-03T12:17:43.262Z,5.80
2018-06-03T12:18:43.225Z,5.10
2018-06-03T12:19:43.254Z,5.40
2018-06-03T12:20:43.194Z,5.60
2018-06-03T12:21:43.170Z,5.60
2018-06-03T12:22:43.141Z,5.20
2018-06-03T12:23:43.150Z,5.90
2018-06-03T12:24:43.131Z,5.40
2018-06-03T12:25:43.107Z,6.10
2018-06-03T12:26:43.091Z,6.00
2018-06-03T12:27:43.063Z,5.60
2018-06-03T12:28:43.100Z,5.50
2018-06-03T12:29:43.003Z,5.40
2018-06-03T12:30:43.054Z,5.30
2018-06-03T12:31:43.025Z,5.30
2018-06-03T12:32:42.980Z,5.40
2018-06-03T12:33:42.925Z,5.90
2018-06-03T12:34:42.938Z,5.50
2018-06-03T12:35:42.923Z,5.20
2018-06-03T12:36:42.890Z,5.90
2018-06-03T12:37:42.851Z,5.80
2018-06-03T12:38:42.848Z,5.30
2018-06-03T12:39:42.811Z,5.70
2018-06-03T12:40:42.799Z,5.40
2018-06-03T12:41:42.794Z,5.60
2018-06-03T12:42:42.786Z,5.70
2018-06-03T12:43:42.738Z,5.80
2018-06-03T12:44:42.738Z,5.40
2018-06-03T12:45:42.755Z,5.40
2018-06-03T12:46:42.775Z,5.60
2018-06-03T12:47:42.669Z,5.70
2018-06-03T12:48:42.652Z,5.60
2018-06-03T12:49:42.629Z,5.00
2018-06-03T12:50:42.609Z,5.60
2018-06-03T12:51:42.632Z,5.50
2018-06-03T12:52:42.579Z,5.50
2018-06-03T12:53:42.535Z,5.30
2018-06-03T12:54:42.588Z,5.10
2018-06-03T12:55:42.502Z,5.40
2018-06-03T12:56:42.472Z,5.40
2018-06-03T12:57:42.479Z,5.30
2018-06-03T12:58:42.442Z,5.50
2018-06-03T12:59:42.429Z,5.20
2018-06-03T13:00:42.406Z,5.50
2018-06-03T13:01:42.419Z,5.10
2018-06-03T13:02:42.361Z,5.20
2018-06-03T13:03:42.330Z,5.10
2018-06-03T13:04:42.320Z,5.20
2018-06-03T13:05:42.784Z,5.20
2018-06-03T13:06:42.277Z,5.10
2018-06-03T13:07:42.299Z,5.00
2018-06-03T13:08:42.258Z,4.80
2018-06-03T13:09:42.242Z,4.90
2018-06-03T13:10:42.190Z,5.40